createdAt,value
2017-07-08T00:02:01.562Z,8.63
2017-07-08T00:04:28.921Z,9.30
2017-07-08T00:06:56.251Z,10.77
2017-07-08T00:09:24.668Z,8.90
2017-07-08T00:11:52.065Z,9.80
2017-07-08T00:14:19.375Z,9.00
2017-07-08T00:16:46.722Z,9.17
2017-07-08T00:19:14.105Z,9.70
2017-07-08T00:21:41.498Z,9.10
2017-07-08T00:24:08.883Z,8.60
2017-07-08T00:26:36.282Z,9.30
2017-07-08T00:29:03.617Z,10.30
2017-07-08T00:31:31.070Z,9.23
2017-07-08T00:33:58.466Z,10.30
2017-07-08T00:36:25.766Z,8.47
2017-07-08T00:38:53.130Z,9.13
2017-07-08T00:41:20.490Z,9.40
2017-07-08T00:43:47.886Z,13.10
2017-07-08T00:46:15.477Z,10.43
2017-07-08T00:48:42.866Z,9.73
2017-07-08T00:51:10.241Z,10.67
2017-07-08T00:53:37.623Z,10.53
2017-07-08T00:56:04.973Z,11.37
2017-07-08T00:58:32.380Z,10.30
2017-07-08T01:00:59.706Z,9.93
2017-07-08T01:03:27.158Z,9.20
2017-07-08T01:05:54.578Z,9.50
2017-07-08T01:08:21.886Z,9.03
2017-07-08T01:10:49.254Z,10.00
2017-07-08T01:13:16.619Z,9.40
2017-07-08T01:15:43.929Z,12.73
2017-07-08T01:18:11.387Z,9.00
2017-07-08T01:20:38.756Z,9.17
2017-07-08T01:23:06.091Z,14.00
2017-07-08T01:25:33.493Z,10.10
2017-07-08T01:28:00.811Z,9.10
2017-07-08T01:30:28.212Z,8.90
2017-07-08T01:32:55.628Z,9.60
2017-07-08T01:35:22.999Z,9.03
2017-07-08T01:37:50.335Z,9.60
2017-07-08T01:40:17.717Z,10.00
2017-07-08T01:42:45.087Z,9.50
2017-07-08T01:45:12.415Z,9.77
2017-07-08T01:47:39.831Z,9.73
2017-07-08T01:50:07.227Z,9.73
2017-07-08T01:52:34.562Z,10.20
2017-07-08T01:55:02.028Z,9.60
2017-07-08T01:57:29.324Z,8.77
2017-07-08T01:59:56.729Z,8.63
2017-07-08T02:02:24.059Z,9.43
2017-07-08T02:04:51.450Z,9.93
2017-07-08T02:07:18.824Z,9.20
2017-07-08T02:09:46.198Z,9.30
2017-07-08T02:12:13.578Z,9.97
2017-07-08T02:14:40.932Z,10.20
2017-07-08T02:17:08.368Z,9.83
2017-07-08T02:19:35.727Z,9.40
2017-07-08T02:22:03.054Z,10.20
2017-07-08T02:24:30.437Z,9.03
2017-07-08T02:26:57.745Z,9.73
2017-07-08T02:29:25.092Z,9.40
2017-07-08T02:31:52.538Z,9.00
2017-07-08T02:34:19.858Z,8.70
2017-07-08T02:36:47.174Z,8.47
2017-07-08T02:39:14.747Z,9.17
2017-07-08T02:41:42.108Z,9.83
2017-07-08T02:44:09.519Z,9.30
2017-07-08T02:46:36.877Z,9.47
2017-07-08T02:49:04.206Z,9.20
2017-07-08T02:51:31.583Z,8.83
2017-07-08T02:53:58.934Z,9.63
2017-07-08T02:56:26.235Z,9.40
2017-07-08T02:58:53.606Z,8.60
2017-07-08T03:01:21.030Z,10.10
2017-07-08T03:03:48.383Z,9.57
2017-07-08T03:06:15.702Z,10.07
2017-07-08T03:08:43.059Z,9.77
2017-07-08T03:11:10.417Z,9.10
2017-07-08T03:13:37.802Z,9.70
2017-07-08T03:16:05.168Z,9.67
2017-07-08T03:18:32.518Z,11.57
2017-07-08T03:20:59.871Z,11.03
2017-07-08T03:23:27.296Z,11.40
2017-07-08T03:25:54.670Z,9.53
2017-07-08T03:28:22.038Z,9.70
2017-07-08T03:30:49.382Z,9.47
2017-07-08T03:33:16.743Z,9.03
2017-07-08T03:35:44.945Z,9.63
2017-07-08T03:38:12.329Z,9.67
2017-07-08T03:40:39.714Z,8.67
2017-07-08T03:43:07.144Z,9.00
2017-07-08T03:45:34.559Z,8.20
2017-07-08T03:48:02.052Z,8.17
2017-07-08T03:50:29.430Z,8.17
2017-07-08T03:52:56.838Z,8.63
2017-07-08T03:55:24.167Z,8.10
2017-07-08T03:57:51.519Z,8.30
2017-07-08T04:00:18.925Z,8.80
2017-07-08T04:02:46.398Z,8.73
2017-07-08T04:05:13.726Z,7.90
2017-07-08T04:07:41.175Z,7.00
2017-07-08T04:10:08.534Z,7.60
2017-07-08T04:12:35.841Z,7.70
2017-07-08T04:15:03.197Z,8.57
2017-07-08T04:17:30.512Z,8.27
2017-07-08T04:19:57.890Z,10.03
2017-07-08T04:22:25.328Z,8.97
2017-07-08T04:24:52.664Z,8.73
2017-07-08T04:27:20.092Z,9.20
2017-07-08T04:29:47.452Z,8.20
2017-07-08T04:32:14.802Z,9.40
2017-07-08T04:34:42.143Z,8.73
2017-07-08T04:37:09.655Z,8.27
2017-07-08T04:39:36.985Z,8.53
2017-07-08T04:42:04.331Z,9.13
2017-07-08T04:44:31.709Z,8.50
2017-07-08T04:46:59.041Z,8.70
2017-07-08T04:49:26.446Z,9.37
2017-07-08T04:51:53.789Z,9.07
2017-07-08T04:54:21.101Z,8.37
2017-07-08T04:56:48.498Z,9.50
2017-07-08T04:59:15.898Z,8.67
2017-07-08T05:01:43.214Z,9.07
2017-07-08T05:04:10.599Z,9.40
2017-07-08T05:06:38.012Z,10.17
2017-07-08T05:09:05.409Z,10.60
2017-07-08T05:11:32.718Z,9.00
2017-07-08T05:14:00.197Z,9.13
2017-07-08T05:16:27.570Z,9.60
2017-07-08T05:18:54.900Z,8.67
2017-07-08T05:21:22.275Z,9.27
2017-07-08T05:23:49.628Z,8.77
2017-07-08T05:26:17.023Z,10.20
2017-07-08T05:28:44.369Z,9.90
2017-07-08T05:31:11.705Z,9.70
2017-07-08T05:33:39.111Z,8.87
2017-07-08T05:36:06.542Z,9.27
2017-07-08T05:38:34.017Z,9.37
2017-07-08T05:41:01.554Z,8.87
2017-07-08T05:43:28.935Z,9.63
2017-07-08T05:45:56.267Z,9.50
2017-07-08T05:48:23.674Z,9.30
2017-07-08T05:50:51.024Z,9.53
2017-07-08T05:53:18.399Z,10.90
2017-07-08T05:55:45.804Z,9.43
2017-07-08T05:58:13.175Z,10.17
2017-07-08T06:00:40.590Z,9.17
2017-07-08T06:03:07.978Z,10.73
2017-07-08T06:05:35.380Z,10.63
2017-07-08T06:08:02.822Z,11.43
2017-07-08T06:10:30.211Z,11.37
2017-07-08T06:12:57.648Z,10.93
2017-07-08T06:15:25.004Z,11.57
2017-07-08T06:17:52.321Z,11.63
2017-07-08T06:20:19.762Z,10.80
2017-07-08T06:22:47.122Z,12.00
2017-07-08T06:25:14.515Z,14.27
2017-07-08T06:27:41.958Z,14.17
2017-07-08T06:30:09.290Z,13.27
2017-07-08T06:32:36.721Z,12.77
2017-07-08T06:35:04.177Z,14.30
2017-07-08T06:37:31.560Z,15.23
2017-07-08T06:39:58.974Z,12.67
2017-07-08T06:42:26.335Z,13.30
2017-07-08T06:44:54.180Z,12.60
2017-07-08T06:47:21.671Z,12.13
2017-07-08T06:49:49.095Z,11.00
2017-07-08T06:52:16.480Z,11.63
2017-07-08T06:54:43.827Z,10.93
2017-07-08T06:57:11.192Z,11.20
2017-07-08T06:59:38.512Z,10.93
2017-07-08T07:02:05.922Z,11.00
2017-07-08T07:04:33.297Z,12.13
2017-07-08T07:07:00.689Z,12.60
2017-07-08T07:09:28.051Z,12.27
2017-07-08T07:11:56.904Z,12.30
2017-07-08T07:14:24.400Z,14.50
2017-07-08T07:16:51.769Z,12.10
2017-07-08T07:19:19.195Z,12.30
2017-07-08T07:21:46.566Z,12.07
2017-07-08T07:24:13.959Z,11.17
2017-07-08T07:26:41.327Z,12.67
2017-07-08T07:29:08.716Z,12.60
2017-07-08T07:31:36.070Z,12.93
2017-07-08T07:34:03.510Z,15.87
2017-07-08T07:36:30.883Z,14.43
2017-07-08T07:38:58.275Z,14.00
2017-07-08T07:41:25.654Z,15.03
2017-07-08T07:43:53.044Z,13.97
2017-07-08T07:46:20.531Z,13.73
2017-07-08T07:48:47.893Z,14.40
2017-07-08T07:51:15.346Z,15.03
2017-07-08T07:53:42.679Z,14.10
2017-07-08T07:56:10.145Z,14.20
2017-07-08T07:58:37.465Z,13.13
2017-07-08T08:01:04.869Z,11.90
2017-07-08T08:03:32.290Z,13.33
2017-07-08T08:06:00.213Z,12.68
2017-07-08T08:08:27.601Z,12.17
2017-07-08T08:10:55.030Z,11.83
2017-07-08T08:13:22.377Z,11.87
2017-07-08T08:15:49.895Z,10.43
2017-07-08T08:18:17.247Z,10.10
2017-07-08T08:20:44.580Z,9.40
2017-07-08T08:23:11.911Z,10.47
2017-07-08T08:25:39.286Z,8.83
2017-07-08T08:28:06.656Z,8.83
2017-07-08T08:30:34.016Z,9.17
2017-07-08T08:33:01.405Z,8.43
2017-07-08T08:35:28.723Z,8.00
2017-07-08T08:37:56.102Z,8.10
2017-07-08T08:40:23.550Z,7.57
2017-07-08T08:42:50.977Z,7.90
2017-07-08T08:45:18.351Z,7.63
2017-07-08T08:47:45.763Z,7.90
2017-07-08T08:50:13.118Z,8.00
2017-07-08T08:52:40.509Z,8.00
2017-07-08T08:55:07.867Z,7.57
2017-07-08T08:57:35.205Z,7.23
2017-07-08T09:00:02.547Z,6.37
2017-07-08T09:02:29.912Z,7.23
2017-07-08T09:04:57.298Z,7.43
2017-07-08T09:07:24.694Z,7.60
2017-07-08T09:09:52.042Z,7.50
2017-07-08T09:12:19.399Z,7.83
2017-07-08T09:14:46.807Z,7.60
2017-07-08T09:17:14.186Z,7.27
2017-07-08T09:19:41.510Z,8.00
2017-07-08T09:22:08.863Z,8.20
2017-07-08T09:24:36.271Z,7.23
2017-07-08T09:27:03.621Z,7.87
2017-07-08T09:29:30.997Z,7.90
2017-07-08T09:31:58.379Z,7.23
2017-07-08T09:34:25.721Z,7.03
2017-07-08T09:36:53.128Z,6.60
2017-07-08T09:39:20.510Z,5.80
2017-07-08T09:41:47.892Z,6.60
2017-07-08T09:44:15.290Z,6.13
2017-07-08T09:46:42.660Z,6.53
2017-07-08T09:49:10.001Z,6.30
2017-07-08T09:51:37.316Z,5.93
2017-07-08T09:54:04.710Z,6.27
2017-07-08T09:56:32.087Z,5.30
2017-07-08T09:58:59.407Z,5.50
2017-07-08T10:01:26.845Z,5.63
2017-07-08T10:03:54.157Z,5.77
2017-07-08T10:06:21.535Z,6.00
2017-07-08T10:08:48.886Z,6.30
2017-07-08T10:11:16.205Z,5.50
2017-07-08T10:13:43.551Z,5.83
2017-07-08T10:16:10.962Z,5.60
2017-07-08T10:18:38.266Z,6.03
2017-07-08T10:21:05.650Z,8.37
2017-07-08T10:23:33.173Z,6.70
2017-07-08T10:26:00.587Z,5.43
2017-07-08T10:28:27.983Z,5.20
2017-07-08T10:30:55.353Z,5.60
2017-07-08T10:33:22.669Z,5.70
2017-07-08T10:35:50.202Z,6.63
2017-07-08T10:38:17.578Z,7.07
2017-07-08T10:40:45.919Z,6.37
2017-07-08T10:43:13.255Z,5.57
2017-07-08T10:45:41.423Z,6.50
2017-07-08T10:48:08.743Z,6.40
2017-07-08T10:50:36.179Z,6.00
2017-07-08T10:53:03.650Z,5.63
2017-07-08T10:55:30.977Z,5.43
2017-07-08T10:57:58.280Z,5.07
2017-07-08T11:00:25.649Z,5.80
2017-07-08T11:02:53.042Z,5.97
2017-07-08T11:05:20.410Z,6.00
2017-07-08T11:07:47.853Z,6.20
2017-07-08T11:10:15.198Z,5.50
2017-07-08T11:12:42.573Z,5.60
2017-07-08T11:15:09.966Z,5.80
2017-07-08T11:17:37.277Z,6.20
2017-07-08T11:20:04.671Z,5.77
2017-07-08T11:22:32.093Z,6.40
2017-07-08T11:24:59.478Z,6.37
2017-07-08T11:27:26.785Z,5.97
2017-07-08T11:29:54.143Z,4.97
2017-07-08T11:32:21.522Z,5.27
2017-07-08T11:34:49.713Z,5.30
2017-07-08T11:37:17.076Z,4.90
2017-07-08T11:39:44.389Z,5.60
2017-07-08T11:42:11.740Z,5.43
2017-07-08T11:44:39.113Z,5.20
2017-07-08T11:47:06.427Z,4.80
2017-07-08T11:49:33.830Z,5.03
2017-07-08T11:52:01.262Z,6.03
2017-07-08T11:54:28.574Z,4.73
2017-07-08T11:56:55.945Z,5.07
2017-07-08T11:59:23.377Z,5.63
2017-07-08T12:01:50.734Z,6.90
2017-07-08T12:04:18.054Z,5.70
2017-07-08T12:06:45.483Z,5.10
2017-07-08T12:09:12.797Z,4.90
2017-07-08T12:11:40.113Z,5.37
2017-07-08T12:14:07.523Z,5.23
2017-07-08T12:16:34.908Z,5.47
2017-07-08T12:19:02.213Z,4.90
2017-07-08T12:21:29.625Z,5.60
2017-07-08T12:23:56.943Z,5.73
2017-07-08T12:26:24.326Z,10.47
2017-07-08T12:28:51.884Z,5.50
2017-07-08T12:31:19.234Z,6.77
2017-07-08T12:33:46.689Z,5.70
2017-07-08T12:36:14.075Z,5.33
2017-07-08T12:38:41.444Z,4.90
2017-07-08T12:41:08.753Z,5.60
2017-07-08T12:43:36.138Z,5.20
2017-07-08T12:46:03.766Z,5.47
2017-07-08T12:48:31.122Z,5.73
2017-07-08T12:50:58.482Z,5.47
2017-07-08T12:53:25.809Z,5.50
2017-07-08T12:55:53.217Z,5.87
2017-07-08T12:58:20.650Z,5.50
2017-07-08T13:00:47.955Z,5.40
2017-07-08T13:03:15.451Z,5.53
2017-07-08T13:05:43.052Z,5.70
2017-07-08T13:08:10.393Z,5.53
2017-07-08T13:10:37.930Z,7.10
2017-07-08T13:13:05.303Z,9.93
2017-07-08T13:15:32.610Z,8.37
2017-07-08T13:17:59.917Z,9.13
2017-07-08T13:20:27.267Z,8.50
2017-07-08T13:22:54.586Z,8.97
2017-07-08T13:25:21.921Z,9.67
2017-07-08T13:27:49.366Z,8.13
2017-07-08T13:30:16.677Z,8.93
2017-07-08T13:32:44.741Z,8.13
2017-07-08T13:35:12.107Z,7.07
2017-07-08T13:37:39.419Z,4.30
2017-07-08T13:40:06.825Z,3.83
2017-07-08T13:42:34.200Z,2.80
2017-07-08T13:45:01.588Z,3.07
2017-07-08T13:47:28.906Z,2.10
2017-07-08T13:49:56.265Z,2.77
2017-07-08T13:52:23.643Z,2.30
2017-07-08T13:54:51.010Z,2.53
2017-07-08T13:57:18.387Z,1.90
2017-07-08T13:59:45.759Z,1.77
2017-07-08T14:02:13.077Z,2.10
2017-07-08T14:04:40.459Z,2.00
2017-07-08T14:07:07.828Z,2.03
2017-07-08T14:09:35.132Z,1.80
2017-07-08T14:12:02.520Z,1.80
2017-07-08T14:14:29.942Z,1.70
2017-07-08T14:16:57.265Z,1.87
2017-07-08T14:19:24.633Z,1.70
2017-07-08T14:21:52.025Z,2.00
2017-07-08T14:24:19.398Z,2.00
2017-07-08T14:26:46.829Z,2.00
2017-07-08T14:29:14.163Z,1.80
2017-07-08T14:31:41.515Z,12.03
2017-07-08T14:34:08.978Z,5.13
2017-07-08T14:36:36.411Z,6.30
2017-07-08T14:39:03.785Z,7.97
2017-07-08T14:41:31.179Z,6.30
2017-07-08T14:43:58.478Z,6.63
2017-07-08T14:46:26.713Z,6.57
2017-07-08T14:48:54.082Z,6.70
2017-07-08T14:51:21.476Z,6.17
2017-07-08T14:53:48.800Z,6.10
2017-07-08T14:56:16.200Z,7.27
2017-07-08T14:58:43.580Z,6.40
2017-07-08T15:01:10.963Z,6.17
2017-07-08T15:03:38.875Z,5.90
2017-07-08T15:06:08.838Z,5.60
2017-07-08T15:08:36.795Z,6.53
2017-07-08T15:11:09.595Z,8.70
2017-07-08T15:13:37.829Z,6.87
2017-07-08T15:16:05.222Z,6.97
2017-07-08T15:18:32.593Z,5.90
2017-07-08T15:20:59.927Z,6.57
2017-07-08T15:23:27.291Z,6.90
2017-07-08T15:25:54.785Z,6.10
2017-07-08T15:28:22.129Z,5.90
2017-07-08T15:30:49.510Z,6.40
2017-07-08T15:33:16.944Z,6.27
2017-07-08T15:35:44.297Z,6.10
2017-07-08T15:38:11.648Z,6.60
2017-07-08T15:40:39.034Z,6.90
2017-07-08T15:43:06.410Z,6.80
2017-07-08T15:45:33.710Z,6.90
2017-07-08T15:48:01.378Z,7.57
2017-07-08T15:50:28.767Z,8.20
2017-07-08T15:52:56.138Z,8.57
2017-07-08T15:55:24.316Z,9.40
2017-07-08T15:57:51.720Z,9.40
2017-07-08T16:00:19.107Z,8.50
2017-07-08T16:02:46.474Z,7.70
2017-07-08T16:05:13.817Z,7.50
2017-07-08T16:07:41.143Z,8.87
2017-07-08T16:10:08.546Z,9.20
2017-07-08T16:12:35.909Z,8.57
2017-07-08T16:15:03.281Z,8.63
2017-07-08T16:17:30.738Z,8.30
2017-07-08T16:19:58.212Z,8.70
2017-07-08T16:22:25.567Z,8.90
2017-07-08T16:24:52.907Z,9.20
2017-07-08T16:27:20.220Z,8.43
2017-07-08T16:29:48.494Z,8.57
2017-07-08T16:32:15.849Z,9.30
2017-07-08T16:34:43.193Z,8.77
2017-07-08T16:37:10.510Z,8.80
2017-07-08T16:39:37.854Z,9.93
2017-07-08T16:42:05.255Z,9.33
2017-07-08T16:44:32.568Z,8.70
2017-07-08T16:47:00.020Z,8.50
2017-07-08T16:49:27.503Z,9.30
2017-07-08T16:51:54.809Z,9.93
2017-07-08T16:54:22.213Z,10.17
2017-07-08T16:56:49.538Z,10.50
2017-07-08T16:59:16.892Z,9.70
2017-07-08T17:01:44.302Z,10.10
2017-07-08T17:04:11.647Z,10.13
2017-07-08T17:06:39.036Z,9.70
2017-07-08T17:09:06.453Z,9.67
2017-07-08T17:11:33.798Z,9.50
2017-07-08T17:14:01.109Z,9.40
2017-07-08T17:16:28.559Z,9.80
2017-07-08T17:18:55.902Z,10.37
2017-07-08T17:21:23.216Z,10.20
2017-07-08T17:23:51.616Z,10.77
2017-07-08T17:26:18.945Z,11.50
2017-07-08T17:28:46.276Z,12.10
2017-07-08T17:31:13.673Z,12.77
2017-07-08T17:33:40.997Z,24.47
2017-07-08T17:36:08.327Z,12.75
2017-07-08T17:38:35.819Z,10.03
2017-07-08T17:41:03.181Z,18.00
2017-07-08T17:43:30.526Z,9.10
2017-07-08T17:45:57.951Z,7.97
2017-07-08T17:48:25.269Z,50.43
2017-07-08T17:50:52.645Z,39.50
2017-07-08T17:53:20.078Z,37.40
2017-07-08T17:55:47.428Z,92.73
2017-07-08T17:58:14.806Z,116.10
2017-07-08T18:00:42.250Z,75.50
2017-07-08T18:03:09.589Z,57.07
2017-07-08T18:05:36.930Z,59.53
2017-07-08T18:08:04.371Z,37.87
2017-07-08T18:10:31.702Z,19.73
2017-07-08T18:12:59.043Z,16.23
2017-07-08T18:15:26.405Z,23.60
2017-07-08T18:17:53.864Z,19.00
2017-07-08T18:20:21.230Z,13.70
2017-07-08T18:22:48.680Z,11.83
2017-07-08T18:25:16.132Z,10.73
2017-07-08T18:27:43.483Z,12.43
2017-07-08T18:30:10.883Z,13.43
2017-07-08T18:32:38.274Z,12.00
2017-07-08T18:35:05.620Z,12.63
2017-07-08T18:37:33.003Z,14.40
2017-07-08T18:40:00.401Z,16.60
2017-07-08T18:42:28.685Z,14.80
2017-07-08T18:44:56.046Z,15.03
2017-07-08T18:47:23.440Z,15.13
2017-07-08T18:49:50.842Z,16.50
2017-07-08T18:52:18.215Z,15.90
2017-07-08T18:54:45.561Z,17.50
2017-07-08T18:57:12.961Z,15.03
2017-07-08T18:59:40.392Z,14.10
2017-07-08T19:02:07.787Z,12.83
2017-07-08T19:04:35.142Z,11.87
2017-07-08T19:07:02.521Z,10.87
2017-07-08T19:09:30.286Z,10.60
2017-07-08T19:11:57.602Z,10.97
2017-07-08T19:14:25.026Z,11.20
2017-07-08T19:16:52.408Z,11.40
2017-07-08T19:19:19.767Z,10.83
2017-07-08T19:21:47.160Z,11.57
2017-07-08T19:24:14.547Z,13.00
2017-07-08T19:26:41.861Z,11.70
2017-07-08T19:29:09.262Z,12.70
2017-07-08T19:31:36.649Z,13.30
2017-07-08T19:34:04.047Z,14.40
2017-07-08T19:36:31.674Z,13.30
2017-07-08T19:38:59.055Z,16.43
2017-07-08T19:41:26.413Z,15.53
2017-07-08T19:43:53.819Z,16.17
2017-07-08T19:46:21.270Z,15.27
2017-07-08T19:48:48.660Z,16.30
2017-07-08T19:51:16.286Z,14.53
2017-07-08T19:53:43.670Z,14.83
2017-07-08T19:56:11.099Z,14.83
2017-07-08T19:58:38.530Z,15.30
2017-07-08T20:01:06.745Z,13.47
2017-07-08T20:03:34.102Z,15.13
2017-07-08T20:06:01.485Z,13.73
2017-07-08T20:08:28.913Z,13.83
2017-07-08T20:10:56.308Z,15.77
2017-07-08T20:13:23.691Z,15.00
2017-07-08T20:15:51.055Z,13.50
2017-07-08T20:18:18.373Z,13.63
2017-07-08T20:20:45.826Z,13.10
2017-07-08T20:23:13.203Z,13.83
2017-07-08T20:25:40.605Z,12.97
2017-07-08T20:28:07.966Z,15.03
2017-07-08T20:30:35.359Z,14.17
2017-07-08T20:33:02.738Z,17.13
2017-07-08T20:35:30.119Z,13.97
2017-07-08T20:37:57.511Z,14.17
2017-07-08T20:40:24.845Z,15.23
2017-07-08T20:42:52.264Z,14.40
2017-07-08T20:45:19.646Z,14.77
2017-07-08T20:47:47.043Z,13.53
2017-07-08T20:50:14.399Z,18.17
2017-07-08T20:52:41.794Z,13.90
2017-07-08T20:55:09.178Z,13.57
2017-07-08T20:57:36.610Z,13.63
2017-07-08T21:00:03.945Z,12.73
2017-07-08T21:02:31.331Z,13.53
2017-07-08T21:04:58.772Z,12.67
2017-07-08T21:07:26.208Z,13.43
2017-07-08T21:09:54.490Z,12.10
2017-07-08T21:12:21.926Z,11.03
2017-07-08T21:14:49.269Z,13.30
2017-07-08T21:17:16.595Z,10.67
2017-07-08T21:19:43.953Z,11.13
2017-07-08T21:22:11.906Z,10.80
2017-07-08T21:24:39.334Z,11.87
2017-07-08T21:27:06.781Z,12.57
2017-07-08T21:29:34.135Z,11.43
2017-07-08T21:32:01.538Z,11.00
2017-07-08T21:34:28.936Z,10.43
2017-07-08T21:36:56.330Z,11.60
2017-07-08T21:39:23.645Z,11.47
2017-07-08T21:41:51.010Z,11.10
2017-07-08T21:44:18.338Z,11.30
2017-07-08T21:46:45.674Z,10.47
2017-07-08T21:49:13.018Z,11.23
2017-07-08T21:51:41.051Z,10.77
2017-07-08T21:54:08.361Z,10.93
2017-07-08T21:56:35.722Z,10.80
2017-07-08T21:59:03.085Z,11.37
2017-07-08T22:01:30.420Z,10.47
2017-07-08T22:03:57.839Z,10.70
2017-07-08T22:06:25.144Z,9.77
2017-07-08T22:08:52.529Z,10.17
2017-07-08T22:11:19.887Z,9.90
2017-07-08T22:13:47.234Z,9.90
2017-07-08T22:16:14.627Z,11.27
2017-07-08T22:18:41.992Z,9.63
2017-07-08T22:21:09.403Z,10.17
2017-07-08T22:23:36.705Z,9.17
2017-07-08T22:26:04.167Z,10.33
2017-07-08T22:28:31.498Z,8.80
2017-07-08T22:30:58.877Z,10.27
2017-07-08T22:33:26.366Z,10.33
2017-07-08T22:35:53.746Z,9.37
2017-07-08T22:38:21.111Z,11.17
2017-07-08T22:40:48.456Z,9.07
2017-07-08T22:43:15.771Z,9.77
2017-07-08T22:45:43.176Z,9.40
2017-07-08T22:48:10.526Z,9.43
2017-07-08T22:50:37.956Z,10.80
2017-07-08T22:53:05.507Z,9.83
2017-07-08T22:55:32.859Z,9.63
2017-07-08T22:58:00.213Z,9.53
2017-07-08T23:00:27.575Z,9.20
2017-07-08T23:02:54.913Z,9.70
2017-07-08T23:05:22.249Z,10.00
2017-07-08T23:07:49.619Z,10.07
2017-07-08T23:10:17.195Z,9.60
2017-07-08T23:12:44.533Z,9.27
2017-07-08T23:15:11.871Z,8.90
2017-07-08T23:17:39.218Z,9.00
2017-07-08T23:20:06.607Z,9.63
2017-07-08T23:22:33.959Z,9.80
2017-07-08T23:25:01.368Z,9.53
2017-07-08T23:27:28.696Z,9.30
2017-07-08T23:29:55.991Z,9.33
2017-07-08T23:32:23.400Z,9.03
2017-07-08T23:34:50.833Z,10.90
2017-07-08T23:37:18.145Z,10.30
2017-07-08T23:39:45.563Z,10.53
2017-07-08T23:42:12.866Z,9.70
2017-07-08T23:44:40.250Z,10.70
2017-07-08T23:47:07.603Z,10.50
2017-07-08T23:49:34.995Z,10.13
2017-07-08T23:52:02.419Z,9.70
2017-07-08T23:54:30.025Z,9.90
2017-07-08T23:56:57.342Z,10.20
2017-07-08T23:59:24.686Z,10.40
